Marine, Minnesota
Current Conditions -  °F | °C
As of 2:55 AM on Saturday 25 Oct 2014 (Local Time) from KRNH Reporting Station
Clear Clear  
Wind Chill: 52°   Ceiling: Unl
Heat Index: 52°   Visibility: 10mi
Dew Point: 41°   Wind: 9mph
Humidity: 66%   Direction: 300°WNW
Pressure: 29.93"   Gusts: NA
Location:  45.1574°N, 92.7623°W
Report Text: KRNH 250755Z AUTO 30008KT 10SM CLR 11/05 A2993 RMK AO2 T01100048
Loading
Personal Weather Stations






























Interactive Weather Map
Tropical Storm Tracking
New forecast layout! Learn more

10-Day Weather Forecast

Advertisements
Track Severe Weather on mobile